Weather at Lądowisko Tuszów Narodowy

Public forecast

Using degrees Celsius for public forecast. Weather courtesy of forecast.io.

Closest aviation weather report (METAR) to Lądowisko Tuszów Narodowy

Closest report is Rzeszów-Jasionka Airport, 26.1 nm (48.2 km) SE.

2024/05/28 18:00 (retrieved 10 minutes ago)

EPRZ 281800Z 08004KT CAVOK 21/11 Q1015

Closest aviation forecast (TAF) to Lądowisko Tuszów Narodowy

Closest forecast is Rzeszów-Jasionka Airport, 26.1 nm (48.2 km) SE.

2024/05/28 18:33 (retrieved 0 seconds ago)

TAF EPRZ 281730Z 2818/2918 12010KT CAVOK BECMG 2818/2820 VRB02KT PROB30 TEMPO 2911/2918 VRB16G30KT 3000 TSRA BKN050CB